Flight Track Log - Related Links

Times and Time Zones

All times are in EDT time to prevent confusion due to time zone crossing. See the SWA1719 flight status page for this flight to view local times or setup timezone preferences in your user account.

Time Position Orientation Groundspeed Altitude Reporting Facility
EDT Latitude Longitude Course Direction KTS MPH feet Rate Location/Type
Thu 11:46:18 AM 29.6297 -95.2947 142° Southeast 254 292 1,100  Level Houston Center
Thu 11:47:29 AM 29.5822 -95.2517 142° Southeast 191 220 3,600 1,898 Climbing Houston Center
Thu 11:47:56 AM 29.5606 -95.2286 137° Southeast 234 269 4,200 1,839 Climbing Houston Center
Thu 11:48:31 AM 29.5347 -95.1992 135° Southeast 244 281 5,500 2,459 Climbing Houston Center
Thu 11:48:57 AM 29.5206 -95.1614 113° Southeast 294 338 6,700 2,381 Climbing Houston Center
Thu 11:49:34 AM 29.5331 -95.1142 73° East 307 353 8,000 2,485 Climbing Houston Center
Thu 11:50:36 AM 29.5572 -95.0144 74° East 329 379 10,800 3,048 Climbing Houston Center
Thu 11:51:38 AM 29.5906 -94.8800 74° East 368 423 14,300 3,194 Climbing Houston Center
Thu 11:52:40 AM 29.6197 -94.7603 74° East 386 444 17,400 2,806 Climbing Houston Center
Thu 11:53:42 AM 29.6497 -94.6358 74° East 404 465 20,100 2,516 Climbing Houston Center
Thu 11:54:44 AM 29.6811 -94.5058 74° East 421 484 22,600 2,468 Climbing Houston Center
Thu 11:55:46 AM 29.7044 -94.3711 79° East 432 497 25,200 2,516 Climbing Houston Center
Thu 11:56:48 AM 29.6839 -94.2083 98° East 429 494 27,800 1,776 Climbing Houston Center
Thu 11:57:51 AM 29.6658 -94.0639 98° East 454 522 28,900 960 Climbing Houston Center
Thu 11:58:53 AM 29.6486 -93.9069 97° East 489 563 29,800 1,210 Climbing Houston Center
Thu 11:59:55 AM 29.6269 -93.7453 99° East 509 586 31,400 1,645 Climbing Houston Center
Thu 12:00:57 PM 29.6064 -93.5806 98° East 518 596 33,200 1,645 Climbing Houston Center
Thu 12:01:59 PM 29.5814 -93.4175 100° East 521 600 34,800 1,500 Climbing Houston Center
Thu 12:03:01 PM 29.5592 -93.2411 98° East 520 598 36,300 1,645 Climbing Houston Center
Thu 12:04:03 PM 29.5328 -93.0467 99° East 517 595 38,200 1,306 Climbing Houston Center
Thu 12:05:05 PM 29.5097 -92.8883 99° East 510 587 39,000 387 Climbing Houston Center
Thu 12:06:07 PM 29.4911 -92.7283 98° East 508 585 39,000  Level Houston Center
Thu 12:07:10 PM 29.4694 -92.5675 99° East 510 587 39,000  Level Houston Center
Thu 12:08:12 PM 29.4481 -92.4094 99° East 507 583 39,000  Level Houston Center
Thu 12:09:14 PM 29.4269 -92.2556 99° East 497 572 39,000  Level Houston Center
Thu 12:10:16 PM 29.4011 -92.0731 99° East 488 562 39,000  Level Houston Center
Thu 12:11:18 PM 29.3836 -91.9400 99° East 487 560 39,000  Level Houston Center
Thu 12:12:20 PM 29.3572 -91.7561 99° East 489 563 39,000  Level Houston Center
Thu 12:13:22 PM 29.3353 -91.6028 99° East 489 563 39,000  Level Houston Center
Thu 12:14:24 PM 29.3125 -91.4497 100° East 489 563 39,000  Level Houston Center
Thu 12:15:27 PM 29.2900 -91.2975 100° East 487 560 39,000  Level Houston Center
Thu 12:16:29 PM 29.2681 -91.1442 99° East 489 563 39,000  Level Houston Center
Thu 12:17:31 PM 29.2408 -90.9617 100° East 488 562 39,000  Level Houston Center
Thu 12:18:33 PM 29.2186 -90.8111 100° East 485 558 39,000  Level Houston Center
Thu 12:19:35 PM 29.1944 -90.6592 100° East 485 558 39,000  Level Houston Center
Thu 12:20:37 PM 29.1717 -90.5086 100° East 483 556 39,000  Level Houston Center
Thu 12:21:39 PM 29.1486 -90.3586 100° East 481 554 39,000  Level Houston Center
Thu 12:22:41 PM 29.1250 -90.2053 100° East 490 564 39,000  Level Houston Center
Thu 12:23:44 PM 29.0953 -90.0208 100° East 494 568 39,000  Level Houston Center
Thu 12:24:46 PM 29.0714 -89.8672 100° East 494 568 39,000  Level Houston Center
Thu 12:25:48 PM 29.0475 -89.7122 100° East 496 571 39,000  Level Houston Center
Thu 12:26:50 PM 29.0228 -89.5589 100° East 496 571 39,000  Level Houston Center
Thu 12:27:52 PM 28.9992 -89.4056 100° East 494 568 39,000  Level Houston Center
Thu 12:28:54 PM 28.9689 -89.2253 101° East 488 562 39,000  Level Houston Center
Thu 12:29:56 PM 28.9442 -89.0764 101° East 483 556 39,000  Level Houston Center
Thu 12:30:58 PM 28.9200 -88.9278 100° East 481 554 39,000  Level Houston Center
Thu 12:32:01 PM 28.8950 -88.7797 101° East 479 551 39,000  Level Houston Center
Thu 12:33:03 PM 28.8644 -88.6314 103° East 484 557 39,000  Level Houston Center
Thu 12:34:05 PM 28.8142 -88.4572 108° East 484 557 39,000  Level Houston Center
Thu 12:35:07 PM 28.7742 -88.3097 107° East 486 559 39,000  Level Houston Center
Thu 12:36:09 PM 28.7319 -88.1669 109° East 480 552 39,000  Level Houston Center
Thu 12:37:11 PM 28.6917 -88.0169 107° East 488 562 39,000  Level Houston Center
Thu 12:38:13 PM 28.6503 -87.8675 107° East 495 570 39,000  Level Houston Center
Thu 12:39:15 PM 28.6086 -87.7225 108° East 489 563 39,000  Level Houston Center
Thu 12:40:07 PM 28.5736 -87.5797 106° East 470 541 39,000  Level Jacksonville Center
Thu 12:41:07 PM 28.5247 -87.4261 110° East 477 549 39,000  Level Jacksonville Center
Thu 12:42:07 PM 28.4819 -87.2803 108° East 484 557 39,000  Level Jacksonville Center
Thu 12:43:07 PM 28.4408 -87.1344 108° East 492 566 39,000  Level Jacksonville Center
Thu 12:44:07 PM 28.3978 -86.9864 108° East 492 566 39,000  Level Jacksonville Center
Thu 12:45:07 PM 28.3544 -86.8383 108° East 492 566 39,000  Level Jacksonville Center
Thu 12:46:07 PM 28.3108 -86.6928 109° East 492 566 39,000  Level Jacksonville Center
Thu 12:47:07 PM 28.2692 -86.5475 108° East 485 558 39,000  Level Jacksonville Center
Thu 12:48:07 PM 28.2272 -86.4072 109° East 485 558 39,000  Level Jacksonville Center
Thu 12:49:07 PM 28.1853 -86.2575 108° East 490 564 39,000  Level Jacksonville Center
Thu 12:50:07 PM 28.1431 -86.1147 109° East 485 558 39,000  Level Jacksonville Center
Thu 12:51:07 PM 28.0986 -85.9697 109° East 491 565 39,000 -50 Level Jacksonville Center
Thu 12:52:07 PM 28.0578 -85.8347 109° East 491 565 38,900 -682 Descending Jacksonville Center
Thu 12:54:03 PM 27.9733 -85.5392 108° East 504 580 37,000 -1,057 Descending Miami Center
Thu 12:55:03 PM 27.9281 -85.3903 109° East 496 571 35,800 -2,000 Descending Miami Center
Thu 12:56:03 PM 27.8850 -85.2394 108° East 496 571 33,000 -1,400 Descending Miami Center
Thu 12:57:03 PM 27.8772 -85.0864 93° East 483 556 33,000  Level Miami Center
Thu 12:58:03 PM 27.8767 -84.9481 90° East 488 562 33,000  Level Miami Center
Thu 12:59:03 PM 27.8853 -84.7939 86° East 488 562 33,000 -400 Level Miami Center
Thu 01:00:03 PM 27.8750 -84.6406 94° East 488 562 32,200 -850 Descending Miami Center
Thu 01:01:03 PM 27.8875 -84.4867 85° East 488 562 31,300 -1,100 Descending Miami Center
Thu 01:02:03 PM 27.8894 -84.3297 89° East 493 567 30,000 -1,850 Descending Miami Center
Thu 01:03:03 PM 27.8972 -84.1775 87° East 493 567 27,600 -2,400 Descending Miami Center
Thu 01:04:03 PM 27.8983 -84.0322 89° East 486 559 25,200 -2,350 Descending Miami Center
Thu 01:05:03 PM 27.8989 -83.8939 90° East 458 527 22,900 -2,250 Descending Miami Center
Thu 01:06:03 PM 27.9033 -83.7581 88° East 446 513 20,700 -2,200 Descending Miami Center
Thu 01:07:03 PM 27.9075 -83.6292 88° East 422 486 18,500 -2,200 Descending Miami Center
Thu 01:08:03 PM 27.9069 -83.5069 90° East 401 461 16,300 -2,250 Descending Miami Center
Thu 01:09:03 PM 27.9081 -83.3875 89° East 387 445 14,000 -2,250 Descending Miami Center
Thu 01:10:03 PM 27.9092 -83.2700 89° East 382 440 11,800 -1,750 Descending Miami Center
Thu 01:11:03 PM 27.9453 -83.1664 68° East 356 410 10,500 -950 Descending Miami Center
Thu 01:12:03 PM 27.9847 -83.0725 65° Northeast 343 395 9,900 -1,000 Descending Miami Center
Thu 01:13:03 PM 28.0242 -82.9806 64° Northeast 316 364 8,500 -1,450 Descending Miami Center
Thu 01:14:03 PM 28.0589 -82.8978 65° Northeast 297 342 7,000 -1,190 Descending Miami Center
Thu 01:15:09 PM 28.1000 -82.8000 64° Northeast 281 323 6,000 -1,190 Descending Tampa TRACON
Thu 01:16:04 PM 28.1167 -82.7500 69° East 258 297 4,600 -1,041 Descending Tampa TRACON
Thu 01:17:10 PM 28.1333 -82.6500 79° East 240 276 3,900 -1,238 Descending Tampa TRACON
Thu 01:18:10 PM 28.1000 -82.5833 120° Southeast 246 283 2,000 -1,050 Descending Tampa TRACON
Thu 01:19:10 PM 28.0833 -82.5333 111° Southeast 170 196 1,800 -450 Descending Tampa TRACON
Thu 01:20:10 PM 28.0333 -82.5333 180° South 144 166 1,100 -700 Descending Tampa TRACON
Thu 01:21:10 PM 28.0000 -82.5333 180° South 135 155 400 -700 Descending Tampa TRACON
Thu 01:23:00 PM 27.9755 -82.5332 180° South  Level Estimated
Thu 01:30:00 PM 27.9755 -82.5332 19° North  Level Estimated

Login

Don't have an account? Register now (free) for customized features, flight alerts, and more!